sensor_id;sensor_type;location;lat;lon;timestamp;P1;durP1;ratioP1;P2;durP2;ratioP2
2622;SDS011;1321;48.690;9.022;2023-03-25T00:00:53;11.40;;;11.10;;
2622;SDS011;1321;48.690;9.022;2023-03-25T00:03:25;11.57;;;11.37;;
2622;SDS011;1321;48.690;9.022;2023-03-25T00:05:55;11.47;;;11.17;;
2622;SDS011;1321;48.690;9.022;2023-03-25T00:08:24;11.80;;;11.60;;
2622;SDS011;1321;48.690;9.022;2023-03-25T00:10:55;11.93;;;11.47;;
2622;SDS011;1321;48.690;9.022;2023-03-25T00:13:24;11.70;;;11.40;;
2622;SDS011;1321;48.690;9.022;2023-03-25T00:15:53;11.27;;;10.87;;
2622;SDS011;1321;48.690;9.022;2023-03-25T00:18:24;11.10;;;10.90;;
2622;SDS011;1321;48.690;9.022;2023-03-25T00:20:55;11.73;;;11.40;;
2622;SDS011;1321;48.690;9.022;2023-03-25T00:23:24;11.60;;;11.10;;
2622;SDS011;1321;48.690;9.022;2023-03-25T00:25:54;11.23;;;10.93;;
2622;SDS011;1321;48.690;9.022;2023-03-25T00:28:26;11.50;;;11.20;;
2622;SDS011;1321;48.690;9.022;2023-03-25T00:30:57;11.00;;;10.80;;
2622;SDS011;1321;48.690;9.022;2023-03-25T00:33:27;11.07;;;10.87;;
2622;SDS011;1321;48.690;9.022;2023-03-25T00:35:57;10.70;;;10.40;;
2622;SDS011;1321;48.690;9.022;2023-03-25T00:38:25;11.20;;;10.80;;
2622;SDS011;1321;48.690;9.022;2023-03-25T00:41:08;10.73;;;10.53;;
2622;SDS011;1321;48.690;9.022;2023-03-25T00:43:37;10.83;;;10.53;;
2622;SDS011;1321;48.690;9.022;2023-03-25T00:46:05;11.40;;;10.97;;
2622;SDS011;1321;48.690;9.022;2023-03-25T00:48:33;10.63;;;10.40;;
2622;SDS011;1321;48.690;9.022;2023-03-25T00:51:02;10.67;;;10.20;;
2622;SDS011;1321;48.690;9.022;2023-03-25T00:53:36;10.60;;;10.30;;
2622;SDS011;1321;48.690;9.022;2023-03-25T00:56:05;11.00;;;10.60;;
2622;SDS011;1321;48.690;9.022;2023-03-25T00:58:35;10.30;;;10.10;;
2622;SDS011;1321;48.690;9.022;2023-03-25T01:01:07;10.40;;;10.00;;
2622;SDS011;1321;48.690;9.022;2023-03-25T01:03:38;10.37;;;10.17;;
2622;SDS011;1321;48.690;9.022;2023-03-25T01:06:09;10.97;;;10.67;;
2622;SDS011;1321;48.690;9.022;2023-03-25T01:08:38;12.17;;;11.53;;
2622;SDS011;1321;48.690;9.022;2023-03-25T01:11:14;10.77;;;10.40;;
2622;SDS011;1321;48.690;9.022;2023-03-25T01:13:46;10.50;;;10.30;;
2622;SDS011;1321;48.690;9.022;2023-03-25T01:16:14;10.60;;;10.40;;
2622;SDS011;1321;48.690;9.022;2023-03-25T01:18:42;10.50;;;10.30;;
2622;SDS011;1321;48.690;9.022;2023-03-25T01:21:10;10.83;;;10.53;;
2622;SDS011;1321;48.690;9.022;2023-03-25T01:23:38;10.90;;;10.60;;
2622;SDS011;1321;48.690;9.022;2023-03-25T01:26:07;11.00;;;10.60;;
2622;SDS011;1321;48.690;9.022;2023-03-25T01:28:35;10.83;;;10.47;;
2622;SDS011;1321;48.690;9.022;2023-03-25T01:31:05;10.73;;;10.50;;
2622;SDS011;1321;48.690;9.022;2023-03-25T01:33:35;10.50;;;10.30;;
2622;SDS011;1321;48.690;9.022;2023-03-25T01:36:03;10.37;;;9.90;;
2622;SDS011;1321;48.690;9.022;2023-03-25T01:38:35;10.00;;;9.80;;
2622;SDS011;1321;48.690;9.022;2023-03-25T01:41:03;10.63;;;10.37;;
2622;SDS011;1321;48.690;9.022;2023-03-25T01:43:32;10.90;;;10.53;;
2622;SDS011;1321;48.690;9.022;2023-03-25T01:46:01;10.53;;;10.17;;
2622;SDS011;1321;48.690;9.022;2023-03-25T01:48:31;10.50;;;10.17;;
2622;SDS011;1321;48.690;9.022;2023-03-25T01:51:04;10.33;;;10.03;;
2622;SDS011;1321;48.690;9.022;2023-03-25T01:53:37;10.27;;;9.93;;
2622;SDS011;1321;48.690;9.022;2023-03-25T01:56:06;10.33;;;10.13;;
2622;SDS011;1321;48.690;9.022;2023-03-25T01:58:38;10.10;;;9.90;;
2622;SDS011;1321;48.690;9.022;2023-03-25T02:01:07;11.00;;;10.60;;
2622;SDS011;1321;48.690;9.022;2023-03-25T02:03:40;10.00;;;9.80;;
2622;SDS011;1321;48.690;9.022;2023-03-25T02:06:13;10.43;;;9.97;;
2622;SDS011;1321;48.690;9.022;2023-03-25T02:08:46;10.20;;;9.80;;
2622;SDS011;1321;48.690;9.022;2023-03-25T02:11:15;10.40;;;10.10;;
2622;SDS011;1321;48.690;9.022;2023-03-25T02:13:44;10.60;;;10.30;;
2622;SDS011;1321;48.690;9.022;2023-03-25T02:16:17;9.80;;;9.60;;
2622;SDS011;1321;48.690;9.022;2023-03-25T02:18:57;10.30;;;10.03;;
2622;SDS011;1321;48.690;9.022;2023-03-25T02:24:48;10.83;;;10.53;;
2622;SDS011;1321;48.690;9.022;2023-03-25T02:27:39;10.57;;;10.13;;
2622;SDS011;1321;48.690;9.022;2023-03-25T02:30:28;10.33;;;10.03;;
2622;SDS011;1321;48.690;9.022;2023-03-25T02:33:31;10.67;;;10.37;;
2622;SDS011;1321;48.690;9.022;2023-03-25T02:39:13;10.20;;;9.90;;
2622;SDS011;1321;48.690;9.022;2023-03-25T02:41:45;10.30;;;10.10;;
2622;SDS011;1321;48.690;9.022;2023-03-25T02:44:18;10.50;;;10.30;;
2622;SDS011;1321;48.690;9.022;2023-03-25T02:46:52;10.50;;;10.30;;
2622;SDS011;1321;48.690;9.022;2023-03-25T02:49:24;10.73;;;10.43;;
2622;SDS011;1321;48.690;9.022;2023-03-25T02:51:58;10.33;;;10.00;;
2622;SDS011;1321;48.690;9.022;2023-03-25T02:54:35;9.97;;;9.77;;
2622;SDS011;1321;48.690;9.022;2023-03-25T02:57:07;9.87;;;9.60;;
2622;SDS011;1321;48.690;9.022;2023-03-25T02:59:38;9.57;;;9.37;;
2622;SDS011;1321;48.690;9.022;2023-03-25T03:02:08;10.57;;;9.97;;
2622;SDS011;1321;48.690;9.022;2023-03-25T03:04:44;9.10;;;8.90;;
2622;SDS011;1321;48.690;9.022;2023-03-25T03:07:14;8.80;;;8.70;;
2622;SDS011;1321;48.690;9.022;2023-03-25T03:09:51;8.93;;;8.73;;
2622;SDS011;1321;48.690;9.022;2023-03-25T03:12:30;8.93;;;8.60;;
2622;SDS011;1321;48.690;9.022;2023-03-25T03:15:20;8.10;;;8.00;;
2622;SDS011;1321;48.690;9.022;2023-03-25T03:17:58;8.63;;;8.53;;
2622;SDS011;1321;48.690;9.022;2023-03-25T03:20:36;8.90;;;8.80;;
2622;SDS011;1321;48.690;9.022;2023-03-25T03:23:12;9.60;;;9.40;;
2622;SDS011;1321;48.690;9.022;2023-03-25T03:25:48;8.83;;;8.73;;
2622;SDS011;1321;48.690;9.022;2023-03-25T03:28:22;8.67;;;8.47;;
2622;SDS011;1321;48.690;9.022;2023-03-25T03:30:56;8.97;;;8.77;;
2622;SDS011;1321;48.690;9.022;2023-03-25T03:33:32;8.30;;;8.20;;
2622;SDS011;1321;48.690;9.022;2023-03-25T03:36:07;8.40;;;8.30;;
2622;SDS011;1321;48.690;9.022;2023-03-25T03:38:40;9.17;;;8.97;;
2622;SDS011;1321;48.690;9.022;2023-03-25T03:41:17;8.60;;;8.50;;
2622;SDS011;1321;48.690;9.022;2023-03-25T03:43:47;9.10;;;8.80;;
2622;SDS011;1321;48.690;9.022;2023-03-25T03:46:19;8.70;;;8.60;;
2622;SDS011;1321;48.690;9.022;2023-03-25T03:48:54;9.00;;;8.80;;
2622;SDS011;1321;48.690;9.022;2023-03-25T03:51:24;8.90;;;8.80;;
2622;SDS011;1321;48.690;9.022;2023-03-25T03:53:57;9.33;;;9.03;;
2622;SDS011;1321;48.690;9.022;2023-03-25T03:56:31;8.60;;;8.50;;
2622;SDS011;1321;48.690;9.022;2023-03-25T03:59:05;8.60;;;8.40;;
2622;SDS011;1321;48.690;9.022;2023-03-25T04:01:40;8.43;;;8.33;;
2622;SDS011;1321;48.690;9.022;2023-03-25T04:04:12;8.97;;;8.80;;
2622;SDS011;1321;48.690;9.022;2023-03-25T04:06:44;8.90;;;8.70;;
2622;SDS011;1321;48.690;9.022;2023-03-25T04:09:22;8.50;;;8.40;;
2622;SDS011;1321;48.690;9.022;2023-03-25T04:11:57;9.00;;;8.90;;
2622;SDS011;1321;48.690;9.022;2023-03-25T04:14:29;8.63;;;8.53;;
2622;SDS011;1321;48.690;9.022;2023-03-25T04:16:57;8.80;;;8.60;;
2622;SDS011;1321;48.690;9.022;2023-03-25T04:19:25;9.07;;;8.77;;
2622;SDS011;1321;48.690;9.022;2023-03-25T04:21:54;8.47;;;8.37;;
2622;SDS011;1321;48.690;9.022;2023-03-25T04:24:22;8.60;;;8.50;;
2622;SDS011;1321;48.690;9.022;2023-03-25T04:26:51;8.80;;;8.70;;
2622;SDS011;1321;48.690;9.022;2023-03-25T04:29:24;8.87;;;8.77;;
2622;SDS011;1321;48.690;9.022;2023-03-25T04:31:52;9.40;;;9.10;;
2622;SDS011;1321;48.690;9.022;2023-03-25T04:34:22;8.87;;;8.77;;
2622;SDS011;1321;48.690;9.022;2023-03-25T04:36:52;8.80;;;8.60;;
2622;SDS011;1321;48.690;9.022;2023-03-25T04:39:23;8.73;;;8.63;;
2622;SDS011;1321;48.690;9.022;2023-03-25T04:41:55;9.20;;;9.00;;
2622;SDS011;1321;48.690;9.022;2023-03-25T04:44:24;8.80;;;8.70;;
2622;SDS011;1321;48.690;9.022;2023-03-25T04:46:53;8.80;;;8.60;;
2622;SDS011;1321;48.690;9.022;2023-03-25T04:49:22;9.73;;;9.30;;
2622;SDS011;1321;48.690;9.022;2023-03-25T04:51:51;9.00;;;8.80;;
2622;SDS011;1321;48.690;9.022;2023-03-25T04:54:22;9.67;;;9.27;;
2622;SDS011;1321;48.690;9.022;2023-03-25T04:56:51;9.43;;;9.10;;
2622;SDS011;1321;48.690;9.022;2023-03-25T04:59:19;9.30;;;9.00;;
2622;SDS011;1321;48.690;9.022;2023-03-25T05:01:49;9.20;;;9.00;;
2622;SDS011;1321;48.690;9.022;2023-03-25T05:04:18;9.10;;;8.80;;
2622;SDS011;1321;48.690;9.022;2023-03-25T05:06:47;9.63;;;9.33;;
2622;SDS011;1321;48.690;9.022;2023-03-25T05:09:17;9.10;;;8.80;;
2622;SDS011;1321;48.690;9.022;2023-03-25T05:11:47;9.30;;;9.00;;
2622;SDS011;1321;48.690;9.022;2023-03-25T05:14:17;9.33;;;9.03;;
2622;SDS011;1321;48.690;9.022;2023-03-25T05:16:46;9.53;;;8.87;;
2622;SDS011;1321;48.690;9.022;2023-03-25T05:19:16;9.10;;;8.90;;
2622;SDS011;1321;48.690;9.022;2023-03-25T05:21:46;9.30;;;9.10;;
2622;SDS011;1321;48.690;9.022;2023-03-25T05:24:14;9.60;;;9.20;;
2622;SDS011;1321;48.690;9.022;2023-03-25T05:26:42;10.00;;;9.60;;
2622;SDS011;1321;48.690;9.022;2023-03-25T05:29:11;9.63;;;9.40;;
2622;SDS011;1321;48.690;9.022;2023-03-25T05:31:43;9.40;;;9.20;;
2622;SDS011;1321;48.690;9.022;2023-03-25T05:34:13;9.73;;;9.30;;
2622;SDS011;1321;48.690;9.022;2023-03-25T05:36:44;9.50;;;8.90;;
2622;SDS011;1321;48.690;9.022;2023-03-25T05:39:13;9.30;;;9.10;;
2622;SDS011;1321;48.690;9.022;2023-03-25T05:41:41;9.37;;;9.17;;
2622;SDS011;1321;48.690;9.022;2023-03-25T05:44:11;9.63;;;9.23;;
2622;SDS011;1321;48.690;9.022;2023-03-25T05:46:41;9.93;;;9.30;;
2622;SDS011;1321;48.690;9.022;2023-03-25T05:49:09;9.60;;;9.40;;
2622;SDS011;1321;48.690;9.022;2023-03-25T05:51:37;9.90;;;9.60;;
2622;SDS011;1321;48.690;9.022;2023-03-25T05:54:07;10.20;;;9.73;;
2622;SDS011;1321;48.690;9.022;2023-03-25T05:56:37;10.10;;;9.80;;
2622;SDS011;1321;48.690;9.022;2023-03-25T05:59:06;9.87;;;9.47;;
2622;SDS011;1321;48.690;9.022;2023-03-25T06:01:35;10.67;;;10.30;;
2622;SDS011;1321;48.690;9.022;2023-03-25T06:04:04;10.10;;;9.83;;
2622;SDS011;1321;48.690;9.022;2023-03-25T06:06:35;10.00;;;9.60;;
2622;SDS011;1321;48.690;9.022;2023-03-25T06:09:04;10.23;;;10.03;;
2622;SDS011;1321;48.690;9.022;2023-03-25T06:11:35;10.67;;;10.33;;
2622;SDS011;1321;48.690;9.022;2023-03-25T06:14:12;11.10;;;10.90;;
2622;SDS011;1321;48.690;9.022;2023-03-25T06:16:40;11.47;;;11.07;;
2622;SDS011;1321;48.690;9.022;2023-03-25T06:19:09;11.17;;;10.90;;
2622;SDS011;1321;48.690;9.022;2023-03-25T06:21:37;11.10;;;10.70;;
2622;SDS011;1321;48.690;9.022;2023-03-25T06:24:07;10.10;;;9.90;;
2622;SDS011;1321;48.690;9.022;2023-03-25T06:26:35;10.97;;;10.50;;
2622;SDS011;1321;48.690;9.022;2023-03-25T06:29:03;10.97;;;10.37;;
2622;SDS011;1321;48.690;9.022;2023-03-25T06:31:31;10.30;;;10.10;;
2622;SDS011;1321;48.690;9.022;2023-03-25T06:34:00;10.33;;;10.03;;
2622;SDS011;1321;48.690;9.022;2023-03-25T06:36:28;10.73;;;10.43;;
2622;SDS011;1321;48.690;9.022;2023-03-25T06:38:57;10.70;;;10.40;;
2622;SDS011;1321;48.690;9.022;2023-03-25T06:41:26;10.97;;;10.57;;
2622;SDS011;1321;48.690;9.022;2023-03-25T06:43:55;11.70;;;11.23;;
2622;SDS011;1321;48.690;9.022;2023-03-25T06:46:23;11.10;;;10.60;;
2622;SDS011;1321;48.690;9.022;2023-03-25T06:48:51;11.73;;;11.00;;
2622;SDS011;1321;48.690;9.022;2023-03-25T06:51:19;10.87;;;10.67;;
2622;SDS011;1321;48.690;9.022;2023-03-25T06:53:49;10.77;;;10.50;;
2622;SDS011;1321;48.690;9.022;2023-03-25T06:56:17;11.37;;;11.07;;
2622;SDS011;1321;48.690;9.022;2023-03-25T06:58:47;11.27;;;10.97;;
2622;SDS011;1321;48.690;9.022;2023-03-25T07:01:15;12.30;;;11.73;;
2622;SDS011;1321;48.690;9.022;2023-03-25T07:03:43;11.33;;;11.13;;
2622;SDS011;1321;48.690;9.022;2023-03-25T07:06:13;11.43;;;11.03;;
2622;SDS011;1321;48.690;9.022;2023-03-25T07:08:43;10.97;;;10.77;;
2622;SDS011;1321;48.690;9.022;2023-03-25T07:11:12;11.20;;;10.90;;
2622;SDS011;1321;48.690;9.022;2023-03-25T07:13:42;11.13;;;10.90;;
2622;SDS011;1321;48.690;9.022;2023-03-25T07:16:12;11.23;;;10.93;;
2622;SDS011;1321;48.690;9.022;2023-03-25T07:18:40;10.97;;;10.57;;
2622;SDS011;1321;48.690;9.022;2023-03-25T07:21:08;10.70;;;10.50;;
2622;SDS011;1321;48.690;9.022;2023-03-25T07:23:37;11.00;;;10.70;;
2622;SDS011;1321;48.690;9.022;2023-03-25T07:26:05;10.80;;;10.60;;
2622;SDS011;1321;48.690;9.022;2023-03-25T07:28:34;12.17;;;11.77;;
2622;SDS011;1321;48.690;9.022;2023-03-25T07:31:04;11.07;;;10.77;;
2622;SDS011;1321;48.690;9.022;2023-03-25T07:33:35;11.60;;;11.20;;
2622;SDS011;1321;48.690;9.022;2023-03-25T07:36:03;10.83;;;10.60;;
2622;SDS011;1321;48.690;9.022;2023-03-25T07:38:33;11.27;;;10.80;;
2622;SDS011;1321;48.690;9.022;2023-03-25T07:41:03;10.80;;;10.60;;
2622;SDS011;1321;48.690;9.022;2023-03-25T07:43:32;10.50;;;10.30;;
2622;SDS011;1321;48.690;9.022;2023-03-25T07:46:01;10.60;;;10.40;;
2622;SDS011;1321;48.690;9.022;2023-03-25T07:48:29;11.07;;;10.87;;
2622;SDS011;1321;48.690;9.022;2023-03-25T07:50:59;11.13;;;10.93;;
2622;SDS011;1321;48.690;9.022;2023-03-25T07:53:27;11.10;;;10.90;;
2622;SDS011;1321;48.690;9.022;2023-03-25T07:55:55;11.10;;;10.90;;
2622;SDS011;1321;48.690;9.022;2023-03-25T07:58:23;11.83;;;11.53;;
2622;SDS011;1321;48.690;9.022;2023-03-25T08:00:51;11.30;;;11.10;;
2622;SDS011;1321;48.690;9.022;2023-03-25T08:03:22;11.83;;;11.53;;
2622;SDS011;1321;48.690;9.022;2023-03-25T08:05:51;11.93;;;11.63;;
2622;SDS011;1321;48.690;9.022;2023-03-25T08:08:20;11.77;;;11.50;;
2622;SDS011;1321;48.690;9.022;2023-03-25T08:10:49;11.63;;;11.43;;
2622;SDS011;1321;48.690;9.022;2023-03-25T08:13:18;12.20;;;11.70;;
2622;SDS011;1321;48.690;9.022;2023-03-25T08:15:46;11.73;;;11.50;;
2622;SDS011;1321;48.690;9.022;2023-03-25T08:18:15;11.60;;;11.40;;
2622;SDS011;1321;48.690;9.022;2023-03-25T08:20:43;12.20;;;11.67;;
2622;SDS011;1321;48.690;9.022;2023-03-25T08:23:12;11.17;;;10.97;;
2622;SDS011;1321;48.690;9.022;2023-03-25T08:25:47;10.87;;;10.67;;
2622;SDS011;1321;48.690;9.022;2023-03-25T08:28:18;11.30;;;11.00;;
2622;SDS011;1321;48.690;9.022;2023-03-25T08:30:49;10.70;;;10.50;;
2622;SDS011;1321;48.690;9.022;2023-03-25T08:33:20;10.40;;;10.20;;
2622;SDS011;1321;48.690;9.022;2023-03-25T08:35:55;10.50;;;10.30;;
2622;SDS011;1321;48.690;9.022;2023-03-25T08:38:23;10.83;;;10.63;;
2622;SDS011;1321;48.690;9.022;2023-03-25T08:41:01;11.07;;;10.77;;
2622;SDS011;1321;48.690;9.022;2023-03-25T08:43:29;11.07;;;10.87;;
2622;SDS011;1321;48.690;9.022;2023-03-25T08:45:57;11.50;;;11.20;;
2622;SDS011;1321;48.690;9.022;2023-03-25T08:48:26;11.60;;;11.30;;
2622;SDS011;1321;48.690;9.022;2023-03-25T08:50:54;11.40;;;11.20;;
2622;SDS011;1321;48.690;9.022;2023-03-25T08:53:23;11.70;;;11.40;;
2622;SDS011;1321;48.690;9.022;2023-03-25T08:55:53;11.70;;;11.40;;
2622;SDS011;1321;48.690;9.022;2023-03-25T08:58:25;11.70;;;11.50;;
2622;SDS011;1321;48.690;9.022;2023-03-25T09:00:54;11.20;;;10.90;;
2622;SDS011;1321;48.690;9.022;2023-03-25T09:03:23;13.50;;;12.90;;
2622;SDS011;1321;48.690;9.022;2023-03-25T09:05:53;11.23;;;10.97;;
2622;SDS011;1321;48.690;9.022;2023-03-25T09:08:21;11.90;;;11.60;;
2622;SDS011;1321;48.690;9.022;2023-03-25T09:10:50;11.73;;;11.43;;
2622;SDS011;1321;48.690;9.022;2023-03-25T09:13:18;11.60;;;11.30;;
2622;SDS011;1321;48.690;9.022;2023-03-25T09:15:47;11.40;;;11.20;;
2622;SDS011;1321;48.690;9.022;2023-03-25T09:18:16;12.17;;;11.80;;
2622;SDS011;1321;48.690;9.022;2023-03-25T09:20:45;11.43;;;11.23;;
2622;SDS011;1321;48.690;9.022;2023-03-25T09:23:14;12.17;;;11.87;;
2622;SDS011;1321;48.690;9.022;2023-03-25T09:25:42;12.10;;;11.83;;
2622;SDS011;1321;48.690;9.022;2023-03-25T09:28:11;12.00;;;11.80;;
2622;SDS011;1321;48.690;9.022;2023-03-25T09:30:39;12.00;;;11.70;;
2622;SDS011;1321;48.690;9.022;2023-03-25T09:33:09;11.80;;;11.60;;
2622;SDS011;1321;48.690;9.022;2023-03-25T09:35:39;12.00;;;11.70;;
2622;SDS011;1321;48.690;9.022;2023-03-25T09:38:08;12.80;;;12.40;;
2622;SDS011;1321;48.690;9.022;2023-03-25T09:40:36;12.73;;;12.43;;
2622;SDS011;1321;48.690;9.022;2023-03-25T09:43:12;12.47;;;12.17;;
2622;SDS011;1321;48.690;9.022;2023-03-25T09:45:51;14.07;;;13.60;;
2622;SDS011;1321;48.690;9.022;2023-03-25T09:48:24;12.97;;;12.67;;
2622;SDS011;1321;48.690;9.022;2023-03-25T09:50:56;13.00;;;12.60;;
2622;SDS011;1321;48.690;9.022;2023-03-25T09:53:30;13.40;;;12.80;;
2622;SDS011;1321;48.690;9.022;2023-03-25T09:56:03;12.83;;;12.50;;
2622;SDS011;1321;48.690;9.022;2023-03-25T09:58:39;12.90;;;12.70;;
2622;SDS011;1321;48.690;9.022;2023-03-25T10:01:20;12.00;;;11.77;;
2622;SDS011;1321;48.690;9.022;2023-03-25T10:03:59;12.07;;;11.80;;
2622;SDS011;1321;48.690;9.022;2023-03-25T10:06:36;12.73;;;12.23;;
2622;SDS011;1321;48.690;9.022;2023-03-25T10:09:21;12.57;;;12.17;;
2622;SDS011;1321;48.690;9.022;2023-03-25T10:11:57;12.20;;;12.00;;
2622;SDS011;1321;48.690;9.022;2023-03-25T10:14:32;12.13;;;11.93;;
2622;SDS011;1321;48.690;9.022;2023-03-25T10:17:09;12.00;;;11.80;;
2622;SDS011;1321;48.690;9.022;2023-03-25T10:19:47;12.73;;;12.50;;
2622;SDS011;1321;48.690;9.022;2023-03-25T10:22:26;12.10;;;11.90;;
2622;SDS011;1321;48.690;9.022;2023-03-25T10:25:01;12.50;;;12.20;;
2622;SDS011;1321;48.690;9.022;2023-03-25T10:27:32;11.97;;;11.67;;
2622;SDS011;1321;48.690;9.022;2023-03-25T10:30:08;12.40;;;12.10;;
2622;SDS011;1321;48.690;9.022;2023-03-25T10:32:40;12.57;;;12.27;;
2622;SDS011;1321;48.690;9.022;2023-03-25T10:35:14;12.30;;;12.10;;
2622;SDS011;1321;48.690;9.022;2023-03-25T10:37:45;12.50;;;12.10;;
2622;SDS011;1321;48.690;9.022;2023-03-25T10:40:18;12.30;;;12.03;;
2622;SDS011;1321;48.690;9.022;2023-03-25T10:42:54;12.13;;;11.93;;
2622;SDS011;1321;48.690;9.022;2023-03-25T10:45:30;11.70;;;11.50;;
2622;SDS011;1321;48.690;9.022;2023-03-25T10:48:02;12.00;;;11.70;;
2622;SDS011;1321;48.690;9.022;2023-03-25T10:50:37;12.00;;;11.80;;
2622;SDS011;1321;48.690;9.022;2023-03-25T10:53:09;11.73;;;11.53;;
2622;SDS011;1321;48.690;9.022;2023-03-25T10:55:47;12.93;;;12.63;;
2622;SDS011;1321;48.690;9.022;2023-03-25T10:58:20;12.70;;;12.40;;
2622;SDS011;1321;48.690;9.022;2023-03-25T11:00:50;12.07;;;11.80;;
2622;SDS011;1321;48.690;9.022;2023-03-25T11:03:19;11.70;;;11.40;;
2622;SDS011;1321;48.690;9.022;2023-03-25T11:05:54;10.20;;;10.00;;
2622;SDS011;1321;48.690;9.022;2023-03-25T11:08:24;9.93;;;9.73;;
2622;SDS011;1321;48.690;9.022;2023-03-25T11:10:53;10.83;;;10.53;;
2622;SDS011;1321;48.690;9.022;2023-03-25T11:13:27;10.80;;;10.40;;
2622;SDS011;1321;48.690;9.022;2023-03-25T11:15:57;10.23;;;10.00;;
2622;SDS011;1321;48.690;9.022;2023-03-25T11:18:29;9.97;;;9.77;;
2622;SDS011;1321;48.690;9.022;2023-03-25T11:21:03;10.20;;;9.73;;
2622;SDS011;1321;48.690;9.022;2023-03-25T11:23:34;10.60;;;10.30;;
2622;SDS011;1321;48.690;9.022;2023-03-25T11:26:05;10.03;;;9.83;;
2622;SDS011;1321;48.690;9.022;2023-03-25T11:28:39;9.57;;;9.30;;
2622;SDS011;1321;48.690;9.022;2023-03-25T11:31:11;8.97;;;8.80;;
2622;SDS011;1321;48.690;9.022;2023-03-25T11:33:42;9.47;;;9.27;;
2622;SDS011;1321;48.690;9.022;2023-03-25T11:38:57;9.40;;;9.17;;
2622;SDS011;1321;48.690;9.022;2023-03-25T11:41:27;9.43;;;9.03;;
2622;SDS011;1321;48.690;9.022;2023-03-25T11:43:57;9.60;;;9.30;;
2622;SDS011;1321;48.690;9.022;2023-03-25T11:46:26;9.67;;;9.37;;
2622;SDS011;1321;48.690;9.022;2023-03-25T11:48:54;9.73;;;9.50;;
2622;SDS011;1321;48.690;9.022;2023-03-25T11:51:23;9.70;;;9.50;;
2622;SDS011;1321;48.690;9.022;2023-03-25T11:53:56;9.70;;;9.40;;
2622;SDS011;1321;48.690;9.022;2023-03-25T11:56:28;9.67;;;9.47;;
2622;SDS011;1321;48.690;9.022;2023-03-25T11:59:01;10.40;;;10.10;;
2622;SDS011;1321;48.690;9.022;2023-03-25T12:01:36;10.53;;;9.93;;
2622;SDS011;1321;48.690;9.022;2023-03-25T12:04:11;9.80;;;9.60;;
2622;SDS011;1321;48.690;9.022;2023-03-25T12:06:54;9.03;;;8.83;;
2622;SDS011;1321;48.690;9.022;2023-03-25T12:09:26;10.17;;;9.97;;
2622;SDS011;1321;48.690;9.022;2023-03-25T12:12:06;11.00;;;10.70;;
2622;SDS011;1321;48.690;9.022;2023-03-25T12:14:51;10.87;;;10.57;;
2622;SDS011;1321;48.690;9.022;2023-03-25T12:17:28;10.50;;;10.20;;
2622;SDS011;1321;48.690;9.022;2023-03-25T12:20:09;10.23;;;10.03;;
2622;SDS011;1321;48.690;9.022;2023-03-25T12:22:51;10.90;;;10.50;;
2622;SDS011;1321;48.690;9.022;2023-03-25T12:25:30;10.23;;;10.00;;
2622;SDS011;1321;48.690;9.022;2023-03-25T12:28:17;10.17;;;9.97;;
2622;SDS011;1321;48.690;9.022;2023-03-25T12:30:59;10.00;;;9.70;;
2622;SDS011;1321;48.690;9.022;2023-03-25T12:33:39;9.70;;;9.43;;
2622;SDS011;1321;48.690;9.022;2023-03-25T12:36:18;9.33;;;9.13;;
2622;SDS011;1321;48.690;9.022;2023-03-25T12:38:59;9.70;;;9.40;;
2622;SDS011;1321;48.690;9.022;2023-03-25T12:41:37;9.00;;;8.63;;
2622;SDS011;1321;48.690;9.022;2023-03-25T12:44:17;9.73;;;9.40;;
2622;SDS011;1321;48.690;9.022;2023-03-25T12:46:53;8.90;;;8.60;;
2622;SDS011;1321;48.690;9.022;2023-03-25T12:49:41;10.10;;;9.80;;
2622;SDS011;1321;48.690;9.022;2023-03-25T12:52:24;10.07;;;9.87;;
2622;SDS011;1321;48.690;9.022;2023-03-25T12:57:57;10.20;;;10.00;;
2622;SDS011;1321;48.690;9.022;2023-03-25T13:00:45;10.90;;;10.60;;
2622;SDS011;1321;48.690;9.022;2023-03-25T13:03:25;11.40;;;11.10;;
2622;SDS011;1321;48.690;9.022;2023-03-25T13:06:12;11.10;;;10.90;;
2622;SDS011;1321;48.690;9.022;2023-03-25T13:08:49;11.40;;;11.10;;
2622;SDS011;1321;48.690;9.022;2023-03-25T13:11:24;11.33;;;11.00;;
2622;SDS011;1321;48.690;9.022;2023-03-25T13:13:59;11.50;;;11.00;;
2622;SDS011;1321;48.690;9.022;2023-03-25T13:16:35;11.30;;;10.90;;
2622;SDS011;1321;48.690;9.022;2023-03-25T13:19:08;9.70;;;9.50;;
2622;SDS011;1321;48.690;9.022;2023-03-25T13:21:39;9.63;;;9.33;;
2622;SDS011;1321;48.690;9.022;2023-03-25T13:24:11;9.50;;;9.20;;
2622;SDS011;1321;48.690;9.022;2023-03-25T13:26:43;10.33;;;9.83;;
2622;SDS011;1321;48.690;9.022;2023-03-25T13:29:17;11.40;;;11.00;;
2622;SDS011;1321;48.690;9.022;2023-03-25T13:31:53;10.27;;;10.03;;
2622;SDS011;1321;48.690;9.022;2023-03-25T13:34:26;10.87;;;10.47;;
2622;SDS011;1321;48.690;9.022;2023-03-25T13:37:01;10.60;;;10.30;;
2622;SDS011;1321;48.690;9.022;2023-03-25T13:39:40;10.27;;;9.97;;
2622;SDS011;1321;48.690;9.022;2023-03-25T13:42:21;10.90;;;10.47;;
2622;SDS011;1321;48.690;9.022;2023-03-25T13:44:56;10.70;;;10.30;;
2622;SDS011;1321;48.690;9.022;2023-03-25T13:47:27;10.10;;;9.90;;
2622;SDS011;1321;48.690;9.022;2023-03-25T13:49:59;10.10;;;9.70;;
2622;SDS011;1321;48.690;9.022;2023-03-25T13:52:32;9.40;;;9.20;;
2622;SDS011;1321;48.690;9.022;2023-03-25T13:55:05;9.60;;;9.37;;
2622;SDS011;1321;48.690;9.022;2023-03-25T13:57:47;9.83;;;9.53;;
2622;SDS011;1321;48.690;9.022;2023-03-25T14:01:12;9.30;;;8.90;;
2622;SDS011;1321;48.690;9.022;2023-03-25T14:07:07;9.23;;;8.90;;
2622;SDS011;1321;48.690;9.022;2023-03-25T14:09:59;10.47;;;9.83;;
2622;SDS011;1321;48.690;9.022;2023-03-25T14:12:40;8.87;;;8.47;;
2622;SDS011;1321;48.690;9.022;2023-03-25T14:15:12;8.07;;;7.77;;
2622;SDS011;1321;48.690;9.022;2023-03-25T14:17:46;9.30;;;8.90;;
2622;SDS011;1321;48.690;9.022;2023-03-25T14:20:19;7.80;;;7.50;;
2622;SDS011;1321;48.690;9.022;2023-03-25T14:22:55;7.50;;;7.30;;
2622;SDS011;1321;48.690;9.022;2023-03-25T14:25:28;7.53;;;7.33;;
2622;SDS011;1321;48.690;9.022;2023-03-25T14:28:02;8.30;;;8.10;;
2622;SDS011;1321;48.690;9.022;2023-03-25T14:30:33;7.53;;;7.17;;
2622;SDS011;1321;48.690;9.022;2023-03-25T14:33:03;6.90;;;6.70;;
2622;SDS011;1321;48.690;9.022;2023-03-25T14:35:45;7.10;;;6.90;;
2622;SDS011;1321;48.690;9.022;2023-03-25T14:38:19;7.83;;;7.63;;
2622;SDS011;1321;48.690;9.022;2023-03-25T14:40:51;7.37;;;7.20;;
2622;SDS011;1321;48.690;9.022;2023-03-25T14:43:31;8.43;;;8.00;;
2622;SDS011;1321;48.690;9.022;2023-03-25T14:46:03;7.90;;;7.70;;
2622;SDS011;1321;48.690;9.022;2023-03-25T14:48:41;7.90;;;7.70;;
2622;SDS011;1321;48.690;9.022;2023-03-25T14:51:19;7.63;;;7.43;;
2622;SDS011;1321;48.690;9.022;2023-03-25T14:54:12;8.20;;;7.80;;
2622;SDS011;1321;48.690;9.022;2023-03-25T14:56:47;7.90;;;7.70;;
2622;SDS011;1321;48.690;9.022;2023-03-25T14:59:21;7.70;;;7.50;;
2622;SDS011;1321;48.690;9.022;2023-03-25T15:01:54;7.90;;;7.60;;
2622;SDS011;1321;48.690;9.022;2023-03-25T15:04:31;7.97;;;7.63;;
2622;SDS011;1321;48.690;9.022;2023-03-25T15:07:03;7.60;;;7.40;;
2622;SDS011;1321;48.690;9.022;2023-03-25T15:09:42;7.90;;;7.70;;
2622;SDS011;1321;48.690;9.022;2023-03-25T15:12:14;9.80;;;9.20;;
2622;SDS011;1321;48.690;9.022;2023-03-25T15:14:45;8.20;;;8.00;;
2622;SDS011;1321;48.690;9.022;2023-03-25T15:20:25;8.07;;;7.80;;
2622;SDS011;1321;48.690;9.022;2023-03-25T15:23:19;8.10;;;8.00;;
2622;SDS011;1321;48.690;9.022;2023-03-25T15:26:03;7.93;;;7.73;;
2622;SDS011;1321;48.690;9.022;2023-03-25T15:28:40;7.60;;;7.50;;
2622;SDS011;1321;48.690;9.022;2023-03-25T15:31:34;7.97;;;7.80;;
2622;SDS011;1321;48.690;9.022;2023-03-25T15:34:29;8.83;;;8.40;;
2622;SDS011;1321;48.690;9.022;2023-03-25T15:40:18;7.90;;;7.80;;
2622;SDS011;1321;48.690;9.022;2023-03-25T15:49:24;7.80;;;7.60;;
2622;SDS011;1321;48.690;9.022;2023-03-25T15:52:23;7.63;;;7.50;;
2622;SDS011;1321;48.690;9.022;2023-03-25T15:55:06;7.80;;;7.50;;
2622;SDS011;1321;48.690;9.022;2023-03-25T15:57:36;7.90;;;7.50;;
2622;SDS011;1321;48.690;9.022;2023-03-25T16:00:07;7.80;;;7.50;;